Time;durP1;ratioP1;P1;durP2;ratioP2;P2;SDS_P1;SDS_P2;PMS_P1;PMS_P2;Temp;Humidity;BMP_temperature;BMP_pressure;BME280_temperature;BME280_humidity;BME280_pressure;Samples;Min_cycle;Max_cycle;Signal;HPM_P1;HPM_P2
2021/09/24 00:01:15;;;;;;;6.85;4.08;;;;;;;15.16;78.53;98092.51;4222181;82;21024;-84
2021/09/24 00:07:25;;;;;;;7.20;3.85;;;;;;;15.21;78.21;98100.28;4227482;82;21144;-82
2021/09/24 00:13:26;;;;;;;6.60;3.70;;;;;;;15.22;78.28;98114.85;4244809;83;21030;-82
2021/09/24 00:19:28;;;;;;;5.70;3.92;;;;;;;15.11;78.46;98110.92;4254714;82;21535;-83
2021/09/24 00:25:30;;;;;;;7.95;4.90;;;;;;;14.99;79.03;98106.06;4250073;81;21107;-84
2021/09/24 00:31:31;;;;;;;8.35;5.00;;;;;;;14.84;79.57;98091.62;4266115;82;21073;-83
2021/09/24 00:37:35;;;;;;;14.33;5.28;;;;;;;14.67;79.85;98104.56;4250376;82;21030;-83
2021/09/24 00:43:37;;;;;;;5.85;3.40;;;;;;;14.60;80.26;98095.63;4249150;82;21524;-83
2021/09/24 00:49:41;;;;;;;8.45;4.10;;;;;;;14.64;80.12;98109.54;4262705;81;21610;-83
2021/09/24 00:55:42;;;;;;;7.47;4.33;;;;;;;14.69;80.15;98132.44;4244410;82;21029;-84
2021/09/24 01:01:45;;;;;;;8.00;4.28;;;;;;;14.79;80.02;98132.84;4244202;82;20996;-83
2021/09/24 01:07:48;;;;;;;11.08;3.98;;;;;;;14.88;80.00;98120.66;4253595;81;21109;-83
2021/09/24 01:13:49;;;;;;;10.30;4.00;;;;;;;14.88;79.97;98106.88;4234874;83;21572;-82
2021/09/24 01:19:52;;;;;;;15.80;4.60;;;;;;;14.98;79.94;98095.47;4229499;82;21091;-82
2021/09/24 01:25:54;;;;;;;7.28;4.87;;;;;;;14.93;80.05;98095.37;4234210;81;21627;-84
2021/09/24 01:31:57;;;;;;;12.13;5.17;;;;;;;14.94;80.05;98089.27;4226677;82;21058;-83
2021/09/24 01:37:59;;;;;;;9.23;5.08;;;;;;;14.93;80.03;98084.34;4230329;83;21079;-82
2021/09/24 01:44:06;;;;;;;10.15;5.03;;;;;;;14.97;79.91;98079.52;4232063;83;21026;-83
2021/09/24 01:50:10;;;;;;;8.40;5.00;;;;;;;15.05;79.43;98082.31;4225611;82;20999;-83
2021/09/24 02:03:52;;;;;;;6.72;4.33;;;;;;;15.21;79.12;98080.20;4239805;83;21117;-83
2021/09/24 02:09:54;;;;;;;6.60;4.00;;;;;;;15.31;78.74;98074.47;4230044;82;21044;-83
2021/09/24 02:15:58;;;;;;;9.30;4.20;;;;;;;15.33;77.95;98069.91;4238717;82;21036;-83
2021/09/24 02:22:01;;;;;;;7.87;3.98;;;;;;;15.38;78.34;98092.25;4245811;82;21060;-83
2021/09/24 02:28:02;;;;;;;7.33;3.95;;;;;;;15.37;78.15;98107.81;4252758;83;21027;-83
2021/09/24 02:34:04;;;;;;;6.50;3.60;;;;;;;15.35;78.23;98093.67;4254200;81;21524;-84
2021/09/24 02:40:07;;;;;;;6.12;3.58;;;;;;;15.32;78.13;98104.18;4244675;83;21118;-83
2021/09/24 02:46:08;;;;;;;6.60;4.00;;;;;;;15.39;77.86;98121.99;4252457;82;21014;-83
2021/09/24 02:52:10;;;;;;;8.00;3.72;;;;;;;15.40;78.21;98151.11;4245074;83;21588;-84
2021/09/24 02:58:11;;;;;;;8.93;3.80;;;;;;;15.36;77.85;98169.08;4256015;81;21014;-84
2021/09/24 03:04:12;;;;;;;9.38;2.72;;;;;;;15.32;78.02;98186.90;4251591;82;21027;-84
2021/09/24 03:10:14;;;;;;;3.75;2.00;;;;;;;15.23;78.18;98205.41;4242014;83;21480;-85
2021/09/24 03:16:19;;;;;;;4.75;2.00;;;;;;;15.09;78.71;98223.61;4232132;83;21070;-84
2021/09/24 03:22:21;;;;;;;6.05;2.20;;;;;;;14.59;79.99;98235.34;4244789;82;22191;-86
2021/09/24 03:28:22;;;;;;;3.35;1.60;;;;;;;14.26;81.47;98238.23;4222171;83;21037;-85
2021/09/24 03:34:23;;;;;;;3.15;1.55;;;;;;;13.97;82.05;98246.09;4237983;83;21095;-82
2021/09/24 03:40:25;;;;;;;5.90;1.20;;;;;;;13.80;82.83;98241.03;4218790;83;21087;-82
2021/09/24 03:46:27;;;;;;;4.87;1.65;;;;;;;13.65;83.53;98256.18;4221211;81;21122;-84
2021/09/24 03:52:29;;;;;;;4.97;1.52;;;;;;;13.60;84.15;98258.59;4228490;83;21046;-83
2021/09/24 03:58:30;;;;;;;8.98;1.35;;;;;;;13.58;84.39;98265.09;4231239;82;21563;-83
2021/09/24 04:04:33;;;;;;;3.12;1.25;;;;;;;13.51;84.94;98264.61;4221217;83;21091;-84
2021/09/24 04:10:35;;;;;;;3.12;1.35;;;;;;;13.46;85.01;98268.39;4233520;82;21098;-84
2021/09/24 04:16:36;;;;;;;3.62;1.32;;;;;;;13.34;85.46;98294.44;4222680;83;21044;-82
2021/09/24 04:22:39;;;;;;;1.45;1.20;;;;;;;13.27;85.74;98289.03;4220972;82;21084;-83
2021/09/24 04:28:40;;;;;;;4.40;1.67;;;;;;;13.24;85.92;98298.68;4223368;81;21100;-83
2021/09/24 04:34:41;;;;;;;6.55;1.92;;;;;;;13.21;86.08;98297.54;4226808;83;21051;-83
2021/09/24 04:40:42;;;;;;;4.55;1.85;;;;;;;13.14;85.87;98308.59;4219644;83;21087;-83
2021/09/24 04:46:47;;;;;;;4.28;2.25;;;;;;;13.10;85.82;98317.48;4234818;83;21119;-84
2021/09/24 04:52:50;;;;;;;6.10;1.80;;;;;;;13.09;85.96;98331.01;4230199;83;21357;-83
2021/09/24 04:58:51;;;;;;;13.88;2.50;;;;;;;13.05;86.15;98332.23;4236094;82;21586;-83
2021/09/24 05:04:52;;;;;;;4.92;2.37;;;;;;;12.98;85.96;98329.53;4225962;83;21131;-83
2021/09/24 05:10:54;;;;;;;7.33;3.00;;;;;;;12.94;86.12;98327.39;4218099;83;21123;-83
2021/09/24 05:16:55;;;;;;;7.87;2.30;;;;;;;12.92;86.12;98339.41;4233036;83;21063;-84
2021/09/24 05:22:57;;;;;;;7.33;3.10;;;;;;;12.88;85.97;98334.52;4238397;83;21577;-83
2021/09/24 05:28:58;;;;;;;12.13;2.80;;;;;;;12.84;86.06;98359.30;4229882;83;21749;-83
2021/09/24 05:34:59;;;;;;;6.95;2.12;;;;;;;12.83;86.05;98352.80;4243756;81;21025;-84
2021/09/24 05:41:00;;;;;;;8.60;2.45;;;;;;;12.81;85.88;98366.94;4248277;82;21042;-83
2021/09/24 05:47:04;;;;;;;8.60;2.58;;;;;;;12.80;86.09;98360.48;4232567;83;21020;-83
2021/09/24 05:53:05;;;;;;;8.43;1.90;;;;;;;12.80;86.03;98365.39;4246003;83;21052;-82
2021/09/24 05:59:07;;;;;;;10.28;2.75;;;;;;;12.83;85.77;98364.58;4238318;83;21028;-84
2021/09/24 06:05:10;;;;;;;9.48;2.17;;;;;;;12.85;85.81;98365.55;4241162;83;21052;-83
2021/09/24 06:11:12;;;;;;;8.48;1.87;;;;;;;12.87;85.60;98386.53;4216478;83;21534;-83
2021/09/24 06:17:14;;;;;;;5.83;1.92;;;;;;;12.88;85.54;98393.58;4169108;82;21080;-83
2021/09/24 06:23:17;;;;;;;4.55;1.82;;;;;;;12.87;85.30;98404.39;4176787;84;21644;-83
2021/09/24 06:29:18;;;;;;;7.37;2.45;;;;;;;12.86;85.20;98421.45;4166406;84;21015;-83
2021/09/24 06:35:23;;;;;;;9.18;2.45;;;;;;;12.84;85.04;98442.27;4166982;84;21053;-83
2021/09/24 06:41:24;;;;;;;11.97;3.00;;;;;;;12.83;84.88;98457.17;4179303;82;21050;-83
2021/09/24 06:47:27;;;;;;;7.53;2.90;;;;;;;12.80;84.91;98467.01;4156683;84;21081;-83
2021/09/24 06:53:28;;;;;;;9.93;2.40;;;;;;;12.78;84.66;98463.11;4171355;84;21108;-84
2021/09/24 06:59:30;;;;;;;13.00;3.40;;;;;;;12.79;84.74;98468.20;4173339;84;21114;-83
2021/09/24 07:05:31;;;;;;;10.20;3.25;;;;;;;12.80;84.57;98469.76;4173894;84;21045;-83
2021/09/24 07:11:34;;;;;;;9.63;2.72;;;;;;;12.79;84.45;98479.19;4174976;82;21053;-83
2021/09/24 07:17:36;;;;;;;11.63;2.83;;;;;;;12.78;84.38;98487.83;4241593;83;21143;-83
2021/09/24 07:23:38;;;;;;;15.55;4.08;;;;;;;12.78;84.45;98478.22;4240223;83;21067;-83
2021/09/24 07:29:39;;;;;;;18.45;3.47;;;;;;;12.82;84.58;98500.36;4236858;83;21056;-83
2021/09/24 07:35:41;;;;;;;6.90;3.30;;;;;;;12.90;84.43;98492.85;4229730;83;21087;-83
2021/09/24 07:41:42;;;;;;;10.93;3.42;;;;;;;12.99;84.28;98497.30;4235563;81;21774;-83
2021/09/24 07:47:45;;;;;;;8.95;2.75;;;;;;;13.03;84.15;98503.60;4237317;82;21045;-83
2021/09/24 07:53:47;;;;;;;11.78;3.08;;;;;;;13.11;83.81;98510.00;4237723;81;21037;-83
2021/09/24 07:59:48;;;;;;;8.63;2.80;;;;;;;13.18;83.48;98516.05;4234416;83;21092;-83
2021/09/24 08:05:49;;;;;;;8.78;2.52;;;;;;;13.26;83.16;98503.83;4232040;83;21707;-83
2021/09/24 08:11:52;;;;;;;13.15;2.37;;;;;;;13.34;82.43;98507.47;4233013;83;21067;-83
2021/09/24 08:17:55;;;;;;;11.63;2.37;;;;;;;13.43;82.17;98515.28;4240396;83;21056;-83
2021/09/24 08:23:57;;;;;;;9.90;2.58;;;;;;;13.55;81.66;98529.31;4254895;83;21054;-83
2021/09/24 08:29:58;;;;;;;8.93;2.80;;;;;;;13.64;81.28;98532.38;4247954;83;21035;-82
2021/09/24 08:36:00;;;;;;;11.48;3.25;;;;;;;13.71;81.28;98541.95;4255836;82;21070;-82
2021/09/24 08:42:01;;;;;;;12.23;3.75;;;;;;;13.83;81.21;98542.03;4256316;82;21351;-83
2021/09/24 08:48:06;;;;;;;8.83;2.20;;;;;;;13.83;80.71;98544.20;4250860;83;21085;-83
2021/09/24 08:54:07;;;;;;;15.00;3.20;;;;;;;13.91;80.17;98561.42;4243068;81;21036;-83
2021/09/24 09:00:10;;;;;;;15.00;3.33;;;;;;;13.97;79.71;98564.70;4248325;82;21055;-83
2021/09/24 09:06:16;;;;;;;8.30;3.35;;;;;;;13.99;79.65;98567.84;4257784;82;21032;-82
2021/09/24 09:12:23;;;;;;;10.95;3.05;;;;;;;13.91;79.09;98584.22;4251446;83;21606;-82
2021/09/24 09:18:25;;;;;;;16.00;3.70;;;;;;;13.78;78.68;98583.14;4241791;82;21118;-83
2021/09/24 09:24:28;;;;;;;14.15;3.25;;;;;;;13.72;78.18;98588.89;4248850;81;21594;-83
2021/09/24 09:30:32;;;;;;;12.07;3.05;;;;;;;13.78;78.28;98598.27;4258246;82;21066;-82
2021/09/24 09:36:42;;;;;;;9.73;3.12;;;;;;;13.88;77.84;98609.01;4255143;83;21047;-82
2021/09/24 09:42:45;;;;;;;9.68;3.30;;;;;;;13.82;77.11;98616.92;4244817;82;21122;-83
2021/09/24 09:49:03;;;;;;;15.45;4.12;;;;;;;13.94;77.39;98611.51;4240566;83;21122;-83
2021/09/24 09:55:05;;;;;;;14.18;3.60;;;;;;;14.15;77.43;98608.00;4255079;83;21095;-83
2021/09/24 10:01:13;;;;;;;15.70;3.05;;;;;;;14.36;77.31;98609.00;4248644;83;21111;-83
2021/09/24 10:07:29;;;;;;;9.10;3.20;;;;;;;14.69;77.18;98615.91;4259960;81;21099;-83
2021/09/24 10:13:39;;;;;;;9.30;2.77;;;;;;;15.54;75.78;98631.58;4235705;82;21120;-82
2021/09/24 10:19:43;;;;;;;15.10;4.12;;;;;;;15.46;75.26;98640.36;4189446;82;21093;-83
2021/09/24 10:25:50;;;;;;;9.85;2.95;;;;;;;15.30;75.46;98652.59;4164763;82;21056;-83
2021/09/24 10:31:51;;;;;;;6.17;1.72;;;;;;;15.12;74.91;98662.45;4176512;84;21050;-82
2021/09/24 10:37:59;;;;;;;6.90;2.15;;;;;;;15.01;74.20;98668.69;4165332;84;21073;-82
2021/09/24 10:44:01;;;;;;;11.63;2.67;;;;;;;14.92;73.85;98668.41;4167832;82;21597;-82
2021/09/24 10:50:32;;;;;;;9.03;1.90;;;;;;;14.87;72.54;98672.20;4178988;84;21079;-83
2021/09/24 10:56:33;;;;;;;7.40;2.02;;;;;;;14.84;73.14;98668.30;4170540;83;21398;-83
2021/09/24 11:02:39;;;;;;;8.00;2.17;;;;;;;14.79;72.88;98667.95;4172827;83;21032;-83
2021/09/24 11:08:44;;;;;;;7.77;2.13;;;;;;;14.84;72.87;98676.56;4177707;84;21033;-83
2021/09/24 11:14:45;;;;;;;6.30;1.85;;;;;;;14.95;72.26;98678.61;4156059;84;21611;-82
2021/09/24 11:20:58;;;;;;;8.00;2.10;;;;;;;14.99;72.05;98677.96;4186505;84;21092;-84
2021/09/24 11:27:04;;;;;;;6.10;1.67;;;;;;;15.05;71.84;98684.58;4189033;82;21011;-82
2021/09/24 11:33:05;;;;;;;6.47;2.07;;;;;;;15.11;71.62;98667.00;4163940;84;21075;-83
2021/09/24 11:39:06;;;;;;;8.40;2.15;;;;;;;15.09;70.61;98682.58;4177026;82;21057;-83
2021/09/24 11:45:17;;;;;;;5.97;2.25;;;;;;;15.11;71.04;98669.77;4173896;84;21029;-83
2021/09/24 11:51:23;;;;;;;7.47;1.80;;;;;;;15.22;70.71;98669.03;4162125;84;21727;-83
2021/09/24 11:57:24;;;;;;;5.17;1.70;;;;;;;15.32;70.13;98661.20;4180271;84;21062;-83
2021/09/24 12:03:31;;;;;;;7.28;1.90;;;;;;;15.53;69.82;98662.34;4176346;84;21084;-83
2021/09/24 12:09:37;;;;;;;;;;;;;;;15.69;70.22;98672.93;4183690;82;21601;-83
2021/09/24 12:15:59;;;;;;;11.00;2.55;;;;;;;15.75;69.96;98679.37;4213277;83;20126;-84
2021/09/24 12:22:04;;;;;;;5.87;2.27;;;;;;;15.92;70.46;98670.04;4234982;83;21071;-83
2021/09/24 12:28:12;;;;;;;5.90;2.22;;;;;;;16.16;69.68;98666.11;4242611;83;21671;-80
2021/09/24 12:34:17;;;;;;;;;;;;;;;16.20;69.13;98664.06;4235030;81;21028;-82
2021/09/24 12:40:21;;;;;;;7.65;3.10;;;;;;;15.98;69.17;98664.22;4237406;83;20173;-83
2021/09/24 12:46:28;;;;;;;7.62;2.60;;;;;;;15.72;69.21;98674.69;4233529;82;21571;-82
2021/09/24 12:52:32;;;;;;;10.38;2.80;;;;;;;15.52;68.91;98689.14;4234973;83;21455;-82
2021/09/24 12:58:42;;;;;;;11.80;2.85;;;;;;;15.39;68.21;98696.39;4232543;83;21064;-82
2021/09/24 13:04:46;;;;;;;6.60;3.08;;;;;;;15.38;68.85;98689.91;4229767;83;21543;-83
2021/09/24 13:10:49;;;;;;;7.60;2.58;;;;;;;15.36;68.52;98691.67;4238154;81;21084;-82
2021/09/24 13:16:51;;;;;;;7.12;2.42;;;;;;;15.47;68.94;98688.83;4183962;83;22286;-83
2021/09/24 13:22:52;;;;;;;18.27;3.45;;;;;;;15.62;68.53;98691.56;4205099;82;21052;-83
2021/09/24 13:28:54;;;;;;;7.33;2.52;;;;;;;15.62;68.08;98693.73;4180225;84;21010;-82
2021/09/24 13:34:55;;;;;;;12.37;3.25;;;;;;;15.58;67.86;98697.75;4170185;84;21051;-82
2021/09/24 13:40:57;;;;;;;10.95;3.83;;;;;;;15.47;67.25;98686.83;4186819;82;21096;-83
2021/09/24 13:46:59;;;;;;;9.15;2.40;;;;;;;15.37;67.37;98693.84;4182464;82;21524;-83
2021/09/24 13:53:05;;;;;;;6.15;2.02;;;;;;;15.22;66.95;98700.74;4155392;84;21056;-82
2021/09/24 13:59:06;;;;;;;10.63;2.72;;;;;;;15.14;66.43;98708.91;4177667;84;21109;-82
2021/09/24 14:05:11;;;;;;;9.93;2.75;;;;;;;15.01;66.59;98703.73;4166361;84;21073;-83
2021/09/24 14:11:12;;;;;;;5.78;2.30;;;;;;;14.99;67.23;98706.90;4171104;84;21077;-83
2021/09/24 14:17:13;;;;;;;14.33;2.75;;;;;;;15.06;66.90;98705.45;4167947;83;21096;-83
2021/09/24 14:23:16;;;;;;;9.03;2.27;;;;;;;15.12;66.64;98714.84;4192524;83;21068;-82
2021/09/24 14:29:21;;;;;;;14.40;2.83;;;;;;;15.13;66.77;98714.22;4189376;83;21112;-83
2021/09/24 14:35:21;;;;;;;10.38;2.47;;;;;;;15.08;67.14;98711.94;4183162;83;21096;-82
2021/09/24 14:41:22;;;;;;;9.30;2.40;;;;;;;15.03;67.08;98720.06;4166339;83;21093;-83
2021/09/24 14:47:25;;;;;;;11.35;2.25;;;;;;;14.99;67.12;98709.66;4180601;82;21585;-83
2021/09/24 14:53:26;;;;;;;8.68;2.42;;;;;;;14.92;66.73;98706.20;4195792;83;21088;-83
2021/09/24 14:59:28;;;;;;;14.18;2.47;;;;;;;14.89;66.80;98713.30;4176759;83;21061;-83
2021/09/24 15:05:29;;;;;;;9.08;2.62;;;;;;;14.85;66.99;98712.57;4182947;83;21007;-82
2021/09/24 15:11:31;;;;;;;15.20;3.00;;;;;;;14.77;67.07;98718.58;4173504;83;21308;-82
2021/09/24 15:17:34;;;;;;;10.95;2.72;;;;;;;14.73;67.19;98715.05;4212547;83;21064;-83
2021/09/24 15:23:35;;;;;;;11.70;2.72;;;;;;;14.67;67.59;98715.31;4233113;83;21552;-82
2021/09/24 15:29:37;;;;;;;9.35;2.40;;;;;;;14.54;67.74;98715.63;4230714;82;21111;-82
2021/09/24 15:35:39;;;;;;;13.00;2.98;;;;;;;14.45;68.01;98723.00;4233728;83;21111;-83
2021/09/24 15:41:41;;;;;;;12.00;3.05;;;;;;;14.42;68.23;98719.69;4222078;83;21048;-82
2021/09/24 15:47:44;;;;;;;13.40;3.40;;;;;;;14.38;68.23;98726.39;4223519;83;21048;-82
2021/09/24 15:53:49;;;;;;;15.65;2.92;;;;;;;14.34;68.56;98728.40;4227508;81;21032;-83
2021/09/24 15:59:51;;;;;;;13.62;3.62;;;;;;;14.28;69.00;98728.65;4235613;83;21894;-83
2021/09/24 16:05:54;;;;;;;10.15;2.55;;;;;;;14.12;69.43;98728.55;4221751;83;21063;-82
2021/09/24 16:11:56;;;;;;;12.28;3.67;;;;;;;14.08;69.39;98738.78;4291602;81;21583;-82
2021/09/24 16:17:59;;;;;;;13.08;3.08;;;;;;;14.03;69.70;98740.58;4236351;83;21067;-83
2021/09/24 16:24:02;;;;;;;15.20;3.17;;;;;;;13.96;69.91;98747.52;4245508;81;21015;-82
2021/09/24 16:30:07;;;;;;;18.17;4.25;;;;;;;13.84;70.19;98754.84;4245484;83;21063;-82
2021/09/24 16:36:08;;;;;;;15.20;3.37;;;;;;;13.72;70.52;98759.45;4259976;82;21435;-82
2021/09/24 16:42:10;;;;;;;17.98;4.83;;;;;;;13.47;71.32;98763.48;4245897;81;21113;-82
2021/09/24 16:48:12;;;;;;;13.43;4.45;;;;;;;13.19;71.73;98771.25;4248884;83;21056;-82
2021/09/24 16:54:13;;;;;;;16.15;5.50;;;;;;;13.17;72.18;98784.59;4258231;82;21573;-82
2021/09/24 17:00:19;;;;;;;21.75;7.67;;;;;;;12.99;72.26;98785.79;4253067;81;21055;-83
2021/09/24 17:06:20;;;;;;;20.50;7.78;;;;;;;12.78;73.39;98795.45;4249616;82;21034;-83
2021/09/24 17:12:22;;;;;;;18.62;7.50;;;;;;;12.56;73.52;98798.77;4257537;83;21101;-83
2021/09/24 17:18:23;;;;;;;24.90;8.18;;;;;;;12.47;73.94;98806.05;4258256;81;21083;-83
2021/09/24 17:24:24;;;;;;;16.93;7.65;;;;;;;12.42;74.60;98808.38;4258284;83;22268;-83
2021/09/24 17:30:26;;;;;;;25.65;8.20;;;;;;;12.36;75.21;98808.58;4261537;83;21099;-82
2021/09/24 17:36:28;;;;;;;14.93;6.67;;;;;;;12.31;75.62;98822.68;4262454;82;21131;-82
2021/09/24 17:42:29;;;;;;;18.07;7.47;;;;;;;12.21;76.35;98842.09;4241687;82;21111;-82
2021/09/24 17:48:30;;;;;;;18.37;8.43;;;;;;;12.14;76.98;98854.41;4262278;82;21050;-82
2021/09/24 17:54:31;;;;;;;26.37;11.25;;;;;;;12.07;77.39;98859.10;4249304;82;21533;-82
2021/09/24 18:00:33;;;;;;;26.15;11.35;;;;;;;11.88;77.18;98865.70;4250592;83;21048;-82
2021/09/24 18:06:35;;;;;;;32.28;12.88;;;;;;;11.69;77.88;98875.61;4253154;81;21026;-82
2021/09/24 18:12:37;;;;;;;34.05;13.50;;;;;;;11.67;78.21;98882.63;4246323;81;21039;-83
2021/09/24 18:18:41;;;;;;;26.90;12.45;;;;;;;11.60;78.67;98892.17;4249476;81;21083;-82
2021/09/24 18:24:42;;;;;;;31.62;14.78;;;;;;;11.54;78.99;98900.57;4256499;83;21103;-82
2021/09/24 18:30:44;;;;;;;31.97;14.43;;;;;;;11.43;79.19;98913.42;4246661;82;21544;-82
2021/09/24 18:36:46;;;;;;;34.25;13.88;;;;;;;11.38;78.98;98913.78;4248721;82;21086;-82
2021/09/24 18:42:47;;;;;;;34.27;13.40;;;;;;;11.32;79.64;98924.89;4239423;83;21075;-82
2021/09/24 18:48:49;;;;;;;29.42;13.25;;;;;;;11.29;80.08;98930.53;4249363;82;22305;-82
2021/09/24 18:54:52;;;;;;;25.80;10.65;;;;;;;11.27;80.37;98932.09;4245223;82;21083;-82
2021/09/24 19:00:53;;;;;;;23.50;10.82;;;;;;;11.21;80.40;98933.05;4248300;82;21043;-82
2021/09/24 19:06:54;;;;;;;25.27;11.55;;;;;;;11.20;81.02;98933.43;4253365;83;21083;-83
2021/09/24 19:12:56;;;;;;;29.82;10.55;;;;;;;11.21;81.56;98940.47;4245445;82;21091;-81
2021/09/24 19:19:02;;;;;;;26.95;10.68;;;;;;;11.23;81.98;98948.50;4203971;81;21111;-82
2021/09/24 19:25:09;;;;;;;22.75;10.63;;;;;;;11.28;82.03;98956.95;4180263;83;21076;-82
2021/09/24 19:31:11;;;;;;;27.62;9.83;;;;;;;11.33;82.17;98969.73;4161503;83;21050;-82
2021/09/24 19:37:12;;;;;;;29.32;10.32;;;;;;;11.40;82.58;98977.23;4160483;84;21101;-82
2021/09/24 19:43:14;;;;;;;30.77;9.25;;;;;;;11.47;82.57;98983.54;4184718;83;21057;-83
2021/09/24 19:49:15;;;;;;;23.83;9.68;;;;;;;11.54;82.84;98980.84;4163890;83;21118;-81
2021/09/24 19:55:17;;;;;;;24.55;8.45;;;;;;;11.62;82.94;98985.20;4172369;83;20992;-82
2021/09/24 20:01:19;;;;;;;26.00;8.00;;;;;;;11.71;83.08;98991.19;4153829;83;21622;-82
2021/09/24 20:07:20;;;;;;;21.48;6.67;;;;;;;11.85;83.01;98998.13;4177801;83;21042;-82
2021/09/24 20:13:21;;;;;;;23.15;7.12;;;;;;;12.00;83.08;98994.86;4168606;83;21065;-82
2021/09/24 20:19:23;;;;;;;19.67;6.03;;;;;;;12.09;83.53;99000.81;4224503;83;21119;-82
2021/09/24 20:25:26;;;;;;;14.70;6.05;;;;;;;12.18;83.94;98993.78;4242628;83;21071;-82
2021/09/24 20:31:28;;;;;;;16.67;6.75;;;;;;;12.27;84.08;98998.92;4246704;83;21127;-81
2021/09/24 20:37:30;;;;;;;18.15;7.12;;;;;;;12.35;84.49;98998.59;4257975;83;21024;-81
2021/09/24 20:43:32;;;;;;;18.32;6.30;;;;;;;12.41;84.22;99001.73;4245571;82;21063;-82
2021/09/24 20:49:34;;;;;;;17.02;6.15;;;;;;;12.50;84.30;98998.03;4255541;82;21043;-82
2021/09/24 20:55:35;;;;;;;12.75;5.30;;;;;;;12.56;84.83;99004.13;4257720;81;21090;-82
2021/09/24 21:01:36;;;;;;;11.35;4.60;;;;;;;12.68;84.60;99007.12;4261529;81;21004;-82
2021/09/24 21:07:38;;;;;;;13.05;4.78;;;;;;;12.80;84.52;98995.77;4246758;83;21520;-82
2021/09/24 21:13:40;;;;;;;11.43;4.08;;;;;;;12.95;84.41;99006.97;4253311;82;21053;-82
2021/09/24 21:19:41;;;;;;;9.53;5.00;;;;;;;13.10;84.30;99011.94;4234344;81;22271;-82
2021/09/24 21:25:43;;;;;;;12.18;4.70;;;;;;;13.21;84.22;99009.98;4228065;83;21384;-83
2021/09/24 21:31:44;;;;;;;8.78;4.90;;;;;;;13.28;84.13;99019.63;4240494;83;21037;-83
2021/09/24 21:37:45;;;;;;;10.05;4.22;;;;;;;13.34;84.08;99022.18;4232397;83;21576;-83
2021/09/24 21:43:47;;;;;;;13.10;5.08;;;;;;;13.41;83.98;99024.34;4234262;83;21048;-83
2021/09/24 21:49:50;;;;;;;11.50;4.80;;;;;;;13.44;83.94;99019.42;4231890;82;21061;-83
2021/09/24 21:55:52;;;;;;;10.68;4.87;;;;;;;13.48;84.04;99020.81;4221321;82;21575;-83
2021/09/24 22:01:53;;;;;;;10.35;5.00;;;;;;;13.50;84.01;99019.22;4220315;83;21580;-80
2021/09/24 22:07:54;;;;;;;13.55;4.85;;;;;;;13.51;84.08;99019.44;4219946;83;21088;-81
2021/09/24 22:13:56;;;;;;;8.88;4.83;;;;;;;13.50;84.11;99018.45;4220180;83;21096;-81
2021/09/24 22:19:57;;;;;;;16.70;4.97;;;;;;;13.50;84.31;99015.70;4241453;82;21068;-80
2021/09/24 22:25:59;;;;;;;12.53;5.10;;;;;;;13.54;84.16;99017.27;4242556;82;21100;-81
2021/09/24 22:32:00;;;;;;;14.30;4.95;;;;;;;13.54;84.50;99020.02;4239432;82;21055;-81
2021/09/24 22:38:04;;;;;;;11.90;5.83;;;;;;;13.54;84.43;99022.77;4246530;81;21115;-80
2021/09/24 22:44:07;;;;;;;16.37;5.67;;;;;;;13.54;84.64;99025.52;4255293;83;21044;-81
2021/09/24 22:50:10;;;;;;;10.00;4.67;;;;;;;13.58;84.81;99033.75;4252936;83;21072;-82
2021/09/24 22:56:13;;;;;;;10.25;4.67;;;;;;;13.59;84.76;99034.73;4252110;81;21115;-83
2021/09/24 23:02:14;;;;;;;9.45;4.42;;;;;;;13.64;84.73;99028.08;4251969;81;21051;-82
2021/09/24 23:08:15;;;;;;;12.78;4.75;;;;;;;13.63;84.79;99031.98;4258644;81;21039;-82
2021/09/24 23:14:17;;;;;;;9.08;3.87;;;;;;;13.63;85.03;99026.48;4244204;83;21099;-82
2021/09/24 23:20:20;;;;;;;15.25;4.50;;;;;;;13.62;85.26;99035.34;4230633;83;21548;-82
2021/09/24 23:26:23;;;;;;;11.30;3.92;;;;;;;13.64;84.98;99020.59;4240439;82;21024;-82
2021/09/24 23:32:24;;;;;;;11.83;4.33;;;;;;;13.69;85.11;99024.91;4239472;81;21119;-82
2021/09/24 23:38:25;;;;;;;9.65;4.60;;;;;;;13.70;85.33;99018.24;4234604;82;21544;-82
2021/09/24 23:44:26;;;;;;;10.45;3.65;;;;;;;13.70;85.19;99021.76;4225547;81;21605;-82
2021/09/24 23:50:28;;;;;;;9.68;3.83;;;;;;;13.74;85.21;99026.69;4235176;81;21060;-82
2021/09/24 23:56:29;;;;;;;10.38;3.72;;;;;;;13.77;84.84;99029.22;4234611;83;21035;-82
